createdAt,value
2023-08-12T00:00:35.451Z,7.63
2023-08-12T00:03:02.948Z,9.95
2023-08-12T00:05:30.492Z,7.30
2023-08-12T00:07:57.239Z,9.23
2023-08-12T00:10:24.076Z,10.32
2023-08-12T00:12:50.935Z,9.27
2023-08-12T00:15:17.841Z,10.25
2023-08-12T00:17:44.693Z,10.40
2023-08-12T00:20:13.343Z,9.48
2023-08-12T00:22:41.274Z,10.55
2023-08-12T00:25:08.712Z,12.88
2023-08-12T00:27:35.738Z,9.27
2023-08-12T00:30:02.624Z,9.43
2023-08-12T00:32:29.580Z,9.38
2023-08-12T00:34:56.540Z,8.88
2023-08-12T00:37:23.871Z,9.52
2023-08-12T00:39:51.008Z,9.18
2023-08-12T00:42:18.162Z,11.43
2023-08-12T00:44:45.513Z,8.63
2023-08-12T00:47:12.924Z,10.23
2023-08-12T00:49:42.160Z,10.73
2023-08-12T00:52:08.977Z,11.20
2023-08-12T00:54:35.847Z,7.88
2023-08-12T00:57:02.829Z,11.13
2023-08-12T00:59:30.183Z,10.10
2023-08-12T01:01:57.173Z,11.57
2023-08-12T01:04:24.053Z,9.95
2023-08-12T01:06:51.221Z,10.13
2023-08-12T01:09:18.628Z,10.35
2023-08-12T01:11:55.193Z,8.65
2023-08-12T01:14:25.463Z,9.02
2023-08-12T01:16:55.648Z,9.27
2023-08-12T01:19:28.266Z,9.52
2023-08-12T01:21:57.377Z,9.00
2023-08-12T01:24:26.432Z,7.68
2023-08-12T01:26:53.779Z,9.27
2023-08-12T01:29:20.813Z,10.35
2023-08-12T01:31:56.736Z,9.43
2023-08-12T01:34:47.222Z,8.70
2023-08-12T01:37:24.196Z,9.70
2023-08-12T01:39:53.391Z,7.47
2023-08-12T01:42:20.935Z,7.35
2023-08-12T01:44:49.158Z,9.73
2023-08-12T01:47:15.933Z,8.85
2023-08-12T01:49:42.729Z,8.73
2023-08-12T01:52:09.562Z,10.90
2023-08-12T01:54:36.425Z,8.88
2023-08-12T01:57:06.416Z,11.30
2023-08-12T01:59:33.786Z,12.20
2023-08-12T02:02:00.620Z,10.25
2023-08-12T02:04:28.009Z,9.27
2023-08-12T02:06:55.867Z,9.90
2023-08-12T02:09:23.595Z,10.75
2023-08-12T02:11:51.083Z,11.93
2023-08-12T02:14:17.870Z,11.75
2023-08-12T02:16:44.694Z,12.23
2023-08-12T02:19:11.729Z,11.52
2023-08-12T02:21:38.556Z,10.07
2023-08-12T02:24:05.627Z,11.48
2023-08-12T02:26:32.483Z,11.77
2023-08-12T02:28:59.291Z,12.50
2023-08-12T02:31:26.242Z,11.23
2023-08-12T02:33:53.118Z,12.48
2023-08-12T02:36:20.356Z,14.93
2023-08-12T02:38:47.196Z,10.73
2023-08-12T02:41:15.129Z,12.70
2023-08-12T02:43:41.866Z,10.60
2023-08-12T02:46:08.722Z,11.25
2023-08-12T02:48:36.673Z,11.10
2023-08-12T02:51:03.637Z,10.15
2023-08-12T02:53:30.326Z,11.23
2023-08-12T02:55:57.161Z,8.90
2023-08-12T02:58:24.011Z,11.02
2023-08-12T03:00:51.272Z,12.13
2023-08-12T03:03:18.125Z,12.18
2023-08-12T03:05:48.732Z,11.60
2023-08-12T03:08:15.875Z,9.68
2023-08-12T03:10:43.417Z,10.88
2023-08-12T03:13:10.667Z,11.82
2023-08-12T03:15:41.262Z,11.52
2023-08-12T03:18:08.576Z,12.13
2023-08-12T03:20:35.704Z,12.25
2023-08-12T03:23:02.883Z,9.07
2023-08-12T03:25:30.058Z,13.05
2023-08-12T03:27:57.216Z,10.13
2023-08-12T03:30:24.439Z,9.90
2023-08-12T03:32:52.891Z,12.85
2023-08-12T03:35:20.411Z,11.18
2023-08-12T03:37:47.850Z,12.20
2023-08-12T03:40:15.046Z,11.32
2023-08-12T03:42:42.232Z,11.45
2023-08-12T03:45:09.765Z,10.15
2023-08-12T03:47:37.384Z,10.52
2023-08-12T03:50:04.684Z,11.68
2023-08-12T03:52:32.098Z,10.48
2023-08-12T03:54:59.524Z,10.27
2023-08-12T03:57:26.676Z,11.38
2023-08-12T03:59:53.957Z,13.60
2023-08-12T04:02:21.072Z,10.65
2023-08-12T04:04:48.216Z,12.02
2023-08-12T04:07:15.701Z,9.90
2023-08-12T04:09:42.951Z,11.43
2023-08-12T04:12:10.259Z,10.40
2023-08-12T04:14:37.495Z,12.32
2023-08-12T04:17:05.028Z,14.50
2023-08-12T04:19:32.207Z,13.15
2023-08-12T04:21:59.377Z,11.02
2023-08-12T04:24:26.623Z,12.65
2023-08-12T04:26:53.828Z,10.65
2023-08-12T04:29:20.941Z,10.77
2023-08-12T04:31:48.125Z,14.77
2023-08-12T04:34:15.398Z,10.70
2023-08-12T04:36:44.347Z,13.00
2023-08-12T04:39:11.968Z,11.05
2023-08-12T04:41:39.589Z,11.30
2023-08-12T04:44:07.402Z,10.60
2023-08-12T04:46:34.692Z,10.75
2023-08-12T04:49:01.809Z,10.13
2023-08-12T04:51:29.827Z,10.50
2023-08-12T04:53:56.973Z,10.25
2023-08-12T04:56:25.880Z,13.20
2023-08-12T04:58:53.127Z,9.57
2023-08-12T05:01:20.430Z,10.57
2023-08-12T05:03:47.578Z,9.70
2023-08-12T05:06:14.805Z,10.65
2023-08-12T05:08:41.970Z,13.93
2023-08-12T05:11:09.184Z,10.75
2023-08-12T05:13:36.404Z,10.25
2023-08-12T05:16:03.634Z,11.15
2023-08-12T05:18:30.935Z,9.00
2023-08-12T05:20:58.784Z,10.25
2023-08-12T05:23:26.216Z,11.93
2023-08-12T05:25:55.444Z,9.57
2023-08-12T05:28:22.703Z,11.80
2023-08-12T05:30:49.828Z,10.68
2023-08-12T05:33:16.770Z,12.00
2023-08-12T05:35:43.617Z,9.48
2023-08-12T05:38:10.428Z,10.20
2023-08-12T05:40:37.203Z,10.75
2023-08-12T05:43:04.701Z,11.98
2023-08-12T05:45:31.869Z,10.73
2023-08-12T05:47:59.357Z,11.55
2023-08-12T05:50:26.322Z,11.68
2023-08-12T05:52:53.125Z,10.07
2023-08-12T05:55:19.958Z,10.10
2023-08-12T05:57:46.805Z,7.85
2023-08-12T06:00:13.740Z,9.20
2023-08-12T06:02:41.133Z,9.20
2023-08-12T06:05:08.684Z,7.78
2023-08-12T06:07:35.875Z,5.53
2023-08-12T06:10:03.662Z,7.60
2023-08-12T06:12:30.848Z,8.65
2023-08-12T06:14:58.081Z,9.80
2023-08-12T06:17:25.242Z,6.93
2023-08-12T06:19:52.553Z,7.45
2023-08-12T06:22:19.773Z,7.57
2023-08-12T06:24:47.028Z,8.27
2023-08-12T06:27:14.234Z,7.18
2023-08-12T06:29:41.619Z,5.60
2023-08-12T06:32:08.783Z,7.40
2023-08-12T06:34:36.020Z,7.88
2023-08-12T06:37:03.482Z,4.65
2023-08-12T06:39:30.674Z,9.65
2023-08-12T06:41:58.091Z,9.07
2023-08-12T06:44:25.250Z,7.20
2023-08-12T06:46:52.440Z,6.30
2023-08-12T06:49:19.910Z,9.35
2023-08-12T06:51:47.162Z,8.00
2023-08-12T06:54:14.421Z,7.45
2023-08-12T06:56:41.642Z,5.63
2023-08-12T06:59:08.886Z,6.15
2023-08-12T07:01:36.077Z,6.75
2023-08-12T07:04:03.308Z,5.15
2023-08-12T07:06:30.533Z,5.72
2023-08-12T07:08:57.820Z,5.72
2023-08-12T07:11:25.031Z,7.57
2023-08-12T07:13:52.320Z,10.70
2023-08-12T07:16:19.656Z,5.63
2023-08-12T07:18:46.890Z,7.47
2023-08-12T07:21:14.017Z,7.18
2023-08-12T07:23:44.094Z,5.82
2023-08-12T07:26:15.916Z,9.68
2023-08-12T07:28:43.277Z,6.93
2023-08-12T07:31:10.645Z,7.25
2023-08-12T07:33:37.841Z,7.45
2023-08-12T07:36:05.214Z,7.53
2023-08-12T07:38:32.717Z,7.75
2023-08-12T07:40:59.514Z,5.63
2023-08-12T07:43:26.288Z,8.32
2023-08-12T07:46:07.585Z,7.90
2023-08-12T07:48:36.444Z,6.95
2023-08-12T07:51:03.723Z,6.10
2023-08-12T07:53:30.971Z,7.35
2023-08-12T07:55:58.110Z,4.90
2023-08-12T07:58:25.376Z,7.35
2023-08-12T08:00:55.082Z,7.00
2023-08-12T08:03:22.477Z,6.55
2023-08-12T08:05:49.773Z,6.07
2023-08-12T08:08:16.973Z,6.40
2023-08-12T08:10:44.165Z,5.40
2023-08-12T08:13:11.433Z,6.97
2023-08-12T08:15:38.806Z,6.53
2023-08-12T08:18:08.250Z,7.05
2023-08-12T08:20:36.319Z,5.80
2023-08-12T08:23:03.584Z,7.35
2023-08-12T08:25:30.771Z,6.15
2023-08-12T08:27:58.157Z,6.55
2023-08-12T08:30:26.900Z,5.18
2023-08-12T08:32:54.411Z,6.35
2023-08-12T08:35:21.709Z,5.88
2023-08-12T08:37:48.881Z,6.97
2023-08-12T08:40:16.135Z,9.75
2023-08-12T08:42:45.423Z,5.78
2023-08-12T08:45:15.816Z,6.90
2023-08-12T08:47:44.021Z,6.80
2023-08-12T08:50:12.026Z,5.70
2023-08-12T08:52:39.411Z,7.80
2023-08-12T08:55:08.257Z,6.97
2023-08-12T09:00:16.357Z,5.60
2023-08-12T09:02:45.359Z,5.35
2023-08-12T09:05:13.027Z,7.00
2023-08-12T09:07:41.590Z,5.97
2023-08-12T09:10:09.257Z,7.65
2023-08-12T09:12:37.560Z,7.55
2023-08-12T09:15:08.336Z,5.90
2023-08-12T09:17:35.583Z,6.32
2023-08-12T09:20:02.936Z,5.85
2023-08-12T09:22:30.047Z,7.80
2023-08-12T09:25:00.468Z,6.05
2023-08-12T09:27:27.685Z,7.45
2023-08-12T09:30:00.486Z,8.93
2023-08-12T09:32:27.745Z,7.07
2023-08-12T09:34:56.082Z,7.90
2023-08-12T09:37:24.641Z,6.63
2023-08-12T09:39:53.020Z,6.72
2023-08-12T09:42:20.606Z,7.68
2023-08-12T09:44:47.970Z,6.45
2023-08-12T09:47:15.544Z,7.72
2023-08-12T09:49:42.844Z,7.28
2023-08-12T09:52:10.635Z,7.03
2023-08-12T09:54:38.521Z,5.03
2023-08-12T09:57:09.241Z,7.85
2023-08-12T09:59:37.295Z,13.02
2023-08-12T10:02:06.170Z,7.30
2023-08-12T10:04:46.306Z,6.85
2023-08-12T10:07:16.566Z,12.43
2023-08-12T10:09:44.554Z,9.02
2023-08-12T10:12:12.020Z,7.65
2023-08-12T10:14:39.828Z,8.00
2023-08-12T10:17:07.390Z,7.90
2023-08-12T10:19:35.505Z,9.38
2023-08-12T10:22:04.488Z,7.72
2023-08-12T10:24:32.054Z,9.20
2023-08-12T10:26:59.367Z,7.13
2023-08-12T10:29:26.736Z,5.82
2023-08-12T10:31:54.075Z,8.50
2023-08-12T10:34:21.424Z,6.68
2023-08-12T10:37:00.284Z,6.22
2023-08-12T10:39:32.476Z,6.70
2023-08-12T10:41:59.920Z,6.15
2023-08-12T10:44:52.040Z,7.03
2023-08-12T10:47:19.488Z,6.18
2023-08-12T10:49:54.703Z,5.78
2023-08-12T10:52:31.770Z,5.65
2023-08-12T10:55:17.453Z,6.50
2023-08-12T10:57:44.820Z,4.65
2023-08-12T11:00:14.151Z,8.00
2023-08-12T11:02:41.968Z,7.00
2023-08-12T11:05:10.115Z,5.63
2023-08-12T11:07:40.587Z,5.07
2023-08-12T11:10:09.039Z,5.00
2023-08-12T11:12:36.540Z,6.88
2023-08-12T11:15:05.448Z,5.07
2023-08-12T11:17:36.371Z,5.13
2023-08-12T11:20:08.043Z,6.15
2023-08-12T11:22:38.345Z,8.38
2023-08-12T11:25:09.205Z,5.03
2023-08-12T11:27:43.951Z,7.18
2023-08-12T11:30:12.491Z,6.97
2023-08-12T11:32:40.729Z,5.47
2023-08-12T11:35:09.267Z,6.25
2023-08-12T11:37:38.011Z,6.53
2023-08-12T11:40:06.044Z,6.88
2023-08-12T11:42:33.303Z,7.60
2023-08-12T11:45:00.478Z,7.03
2023-08-12T11:47:27.934Z,6.82
2023-08-12T11:49:55.252Z,5.95
2023-08-12T11:52:22.557Z,5.82
2023-08-12T11:54:50.986Z,6.70
2023-08-12T11:57:18.428Z,7.35
2023-08-12T11:59:45.654Z,7.63
2023-08-12T12:02:14.215Z,4.55
2023-08-12T12:04:43.805Z,4.95
2023-08-12T12:07:24.237Z,5.18
2023-08-12T12:09:55.333Z,5.60
2023-08-12T12:12:28.716Z,7.32
2023-08-12T12:14:55.907Z,5.93
2023-08-12T12:17:23.880Z,7.40
2023-08-12T12:19:58.112Z,6.05
2023-08-12T12:22:33.285Z,5.72
2023-08-12T12:25:01.210Z,8.48
2023-08-12T12:27:28.807Z,7.68
2023-08-12T12:29:56.598Z,8.07
2023-08-12T12:32:23.889Z,8.55
2023-08-12T12:34:52.388Z,5.78
2023-08-12T12:37:19.618Z,8.63
2023-08-12T12:39:47.688Z,4.60
2023-08-12T12:42:15.129Z,6.00
2023-08-12T12:44:42.635Z,6.78
2023-08-12T12:47:12.140Z,6.40
2023-08-12T12:49:39.548Z,7.07
2023-08-12T12:52:06.739Z,5.85
2023-08-12T12:54:33.882Z,5.38
2023-08-12T12:57:02.297Z,5.00
2023-08-12T12:59:29.584Z,4.95
2023-08-12T13:01:56.777Z,5.03
2023-08-12T13:04:24.031Z,5.40
2023-08-12T13:06:51.319Z,6.45
2023-08-12T13:09:18.566Z,4.88
2023-08-12T13:11:45.716Z,8.02
2023-08-12T13:14:12.934Z,6.93
2023-08-12T13:16:40.250Z,6.78
2023-08-12T13:19:07.387Z,6.32
2023-08-12T13:21:34.802Z,7.25
2023-08-12T13:24:04.793Z,4.68
2023-08-12T13:26:31.981Z,4.85
2023-08-12T13:28:59.213Z,4.35
2023-08-12T13:31:27.050Z,5.75
2023-08-12T13:33:54.280Z,5.80
2023-08-12T13:36:21.405Z,7.93
2023-08-12T13:38:48.712Z,6.22
2023-08-12T13:41:16.394Z,7.18
2023-08-12T13:43:43.792Z,5.43
2023-08-12T13:46:11.155Z,8.35
2023-08-12T13:48:38.423Z,6.18
2023-08-12T13:51:05.775Z,6.32
2023-08-12T13:53:32.944Z,5.63
2023-08-12T13:56:00.129Z,4.90
2023-08-12T13:58:27.243Z,8.00
2023-08-12T14:00:54.538Z,8.00
2023-08-12T14:03:21.704Z,5.43
2023-08-12T14:05:48.897Z,6.93
2023-08-12T14:08:16.216Z,6.93
2023-08-12T14:10:43.403Z,5.78
2023-08-12T14:13:10.571Z,8.15
2023-08-12T14:15:37.779Z,7.43
2023-08-12T14:18:05.143Z,8.35
2023-08-12T14:20:32.415Z,6.75
2023-08-12T14:23:00.535Z,8.82
2023-08-12T14:25:27.830Z,8.10
2023-08-12T14:27:54.981Z,9.07
2023-08-12T14:30:25.037Z,6.60
2023-08-12T14:32:52.365Z,7.25
2023-08-12T14:35:19.589Z,10.80
2023-08-12T14:37:46.749Z,8.55
2023-08-12T14:40:13.956Z,5.72
2023-08-12T14:42:41.098Z,8.68
2023-08-12T14:45:08.823Z,3.72
2023-08-12T14:47:36.014Z,7.45
2023-08-12T14:50:05.291Z,5.82
2023-08-12T14:52:32.548Z,14.45
2023-08-12T14:54:59.643Z,9.43
2023-08-12T14:57:26.808Z,6.57
2023-08-12T14:59:53.971Z,8.02
2023-08-12T15:02:24.182Z,7.25
2023-08-12T15:04:52.036Z,8.75
2023-08-12T15:07:19.960Z,8.77
2023-08-12T15:09:47.484Z,12.40
2023-08-12T15:12:14.629Z,7.47
2023-08-12T15:14:41.796Z,6.40
2023-08-12T15:17:08.920Z,7.68
2023-08-12T15:19:36.142Z,6.55
2023-08-12T15:22:03.319Z,11.48
2023-08-12T15:24:31.334Z,7.18
2023-08-12T15:26:58.510Z,7.13
2023-08-12T15:29:25.860Z,9.38
2023-08-12T15:31:53.161Z,6.00
2023-08-12T15:34:20.462Z,6.32
2023-08-12T15:36:47.626Z,8.45
2023-08-12T15:39:14.808Z,8.48
2023-08-12T15:41:43.935Z,5.63
2023-08-12T15:44:11.864Z,5.65
2023-08-12T15:46:39.233Z,6.65
2023-08-12T15:49:08.435Z,4.45
2023-08-12T15:51:35.874Z,6.57
2023-08-12T15:54:03.035Z,5.97
2023-08-12T15:56:32.343Z,7.60
2023-08-12T15:59:00.938Z,5.60
2023-08-12T16:01:28.063Z,10.07
2023-08-12T16:03:55.245Z,7.65
2023-08-12T16:06:24.049Z,10.25
2023-08-12T16:09:09.944Z,8.38
2023-08-12T16:11:38.672Z,13.13
2023-08-12T16:14:05.984Z,5.82
2023-08-12T16:16:33.331Z,11.02
2023-08-12T16:19:00.507Z,5.88
2023-08-12T16:21:27.661Z,7.93
2023-08-12T16:23:54.821Z,6.15
2023-08-12T16:26:22.398Z,7.72
2023-08-12T16:28:49.902Z,10.55
2023-08-12T16:31:17.363Z,8.32
2023-08-12T16:33:44.577Z,7.65
2023-08-12T16:36:11.840Z,8.77
2023-08-12T16:38:39.172Z,7.43
2023-08-12T16:41:06.316Z,7.22
2023-08-12T16:43:33.591Z,11.68
2023-08-12T16:46:00.885Z,10.55
2023-08-12T16:48:28.288Z,8.63
2023-08-12T16:50:55.500Z,8.38
2023-08-12T16:53:22.709Z,8.43
2023-08-12T16:55:49.950Z,12.70
2023-08-12T16:58:17.059Z,7.82
2023-08-12T17:00:44.338Z,7.40
2023-08-12T17:03:11.641Z,8.73
2023-08-12T17:05:38.894Z,8.13
2023-08-12T17:08:06.257Z,8.85
2023-08-12T17:10:34.396Z,9.00
2023-08-12T17:13:01.701Z,6.82
2023-08-12T17:15:29.179Z,7.85
2023-08-12T17:17:56.498Z,6.55
2023-08-12T17:20:23.805Z,7.88
2023-08-12T17:22:50.969Z,10.65
2023-08-12T17:25:18.197Z,8.85
2023-08-12T17:27:45.334Z,10.82
2023-08-12T17:30:12.576Z,7.47
2023-08-12T17:32:39.758Z,7.30
2023-08-12T17:35:07.076Z,7.15
2023-08-12T17:37:36.725Z,11.75
2023-08-12T17:40:04.123Z,9.48
2023-08-12T17:42:31.256Z,8.98
2023-08-12T17:44:58.565Z,6.90
2023-08-12T17:47:25.757Z,7.10
2023-08-12T17:49:52.957Z,7.22
2023-08-12T17:52:20.120Z,6.95
2023-08-12T17:54:47.272Z,8.18
2023-08-12T17:57:14.434Z,7.80
2023-08-12T17:59:41.754Z,11.07
2023-08-12T18:02:08.915Z,10.30
2023-08-12T18:04:36.054Z,10.80
2023-08-12T18:07:04.581Z,9.75
2023-08-12T18:09:31.901Z,12.20
2023-08-12T18:11:59.066Z,6.70
2023-08-12T18:14:26.281Z,8.82
2023-08-12T18:16:53.482Z,8.40
2023-08-12T18:19:21.402Z,8.95
2023-08-12T18:21:48.666Z,11.25
2023-08-12T18:24:16.375Z,8.63
2023-08-12T18:26:43.654Z,8.02
2023-08-12T18:29:10.877Z,13.55
2023-08-12T18:31:40.212Z,10.30
2023-08-12T18:34:07.806Z,11.38
2023-08-12T18:36:35.027Z,10.90
2023-08-12T18:39:02.168Z,10.00
2023-08-12T18:41:29.306Z,10.40
2023-08-12T18:43:56.429Z,15.35
2023-08-12T18:46:23.691Z,10.15
2023-08-12T18:48:50.903Z,8.23
2023-08-12T18:51:18.141Z,8.95
2023-08-12T18:53:45.396Z,10.98
2023-08-12T18:56:12.502Z,12.23
2023-08-12T18:58:39.677Z,11.40
2023-08-12T19:01:06.776Z,8.75
2023-08-12T19:03:34.109Z,6.82
2023-08-12T19:06:01.806Z,11.10
2023-08-12T19:08:28.922Z,9.27
2023-08-12T19:10:56.894Z,8.65
2023-08-12T19:13:27.690Z,7.97
2023-08-12T19:15:55.317Z,8.55
2023-08-12T19:18:27.416Z,8.48
2023-08-12T19:20:54.902Z,10.57
2023-08-12T19:23:22.275Z,13.27
2023-08-12T19:25:49.523Z,10.68
2023-08-12T19:28:17.204Z,7.88
2023-08-12T19:30:44.441Z,9.75
2023-08-12T19:33:11.567Z,7.50
2023-08-12T19:35:38.778Z,7.57
2023-08-12T19:38:12.222Z,9.98
2023-08-12T19:40:39.424Z,7.32
2023-08-12T19:43:06.698Z,12.52
2023-08-12T19:45:34.209Z,7.13
2023-08-12T19:48:01.128Z,6.53
2023-08-12T19:50:28.636Z,7.30
2023-08-12T19:52:55.505Z,9.25
2023-08-12T19:55:22.439Z,6.68
2023-08-12T19:57:49.737Z,8.85
2023-08-12T20:00:17.038Z,7.07
2023-08-12T20:02:44.461Z,7.38
2023-08-12T20:05:13.348Z,6.68
2023-08-12T20:07:40.563Z,7.97
2023-08-12T20:10:08.186Z,10.05
2023-08-12T20:12:35.424Z,11.00
2023-08-12T20:15:02.502Z,9.02
2023-08-12T20:17:29.343Z,9.65
2023-08-12T20:19:56.470Z,9.25
2023-08-12T20:22:23.982Z,7.10
2023-08-12T20:24:51.299Z,7.47
2023-08-12T20:27:18.457Z,12.38
2023-08-12T20:29:47.265Z,8.32
2023-08-12T20:32:14.230Z,9.02
2023-08-12T20:34:42.662Z,9.68
2023-08-12T20:37:09.968Z,8.45
2023-08-12T20:39:37.122Z,6.40
2023-08-12T20:42:07.188Z,7.80
2023-08-12T20:44:33.927Z,9.18
2023-08-12T20:47:00.675Z,8.80
2023-08-12T20:49:27.442Z,9.88
2023-08-12T20:51:54.300Z,8.35
2023-08-12T20:54:20.977Z,11.15
2023-08-12T20:56:47.685Z,10.63
2023-08-12T20:59:14.502Z,10.07
2023-08-12T21:01:41.366Z,9.48
2023-08-12T21:04:08.117Z,9.85
2023-08-12T21:06:34.974Z,9.35
2023-08-12T21:09:01.924Z,9.15
2023-08-12T21:11:28.920Z,7.93
2023-08-12T21:13:55.659Z,11.48
2023-08-12T21:16:22.484Z,8.70
2023-08-12T21:18:49.322Z,9.05
2023-08-12T21:21:16.232Z,15.57
2023-08-12T21:23:42.987Z,9.90
2023-08-12T21:26:09.891Z,9.63
2023-08-12T21:28:36.747Z,10.85
2023-08-12T21:31:03.502Z,10.32
2023-08-12T21:33:30.857Z,9.35
2023-08-12T21:35:58.009Z,12.00
2023-08-12T21:38:25.260Z,10.02
2023-08-12T21:40:52.410Z,8.50
2023-08-12T21:43:19.690Z,9.95
2023-08-12T21:45:46.863Z,11.77
2023-08-12T21:48:15.353Z,9.02
2023-08-12T21:50:42.463Z,11.15
2023-08-12T21:53:10.442Z,11.40
2023-08-12T21:55:37.608Z,12.45
2023-08-12T21:58:04.861Z,10.88
2023-08-12T22:00:32.245Z,12.50
2023-08-12T22:02:59.456Z,11.02
2023-08-12T22:05:26.688Z,13.38
2023-08-12T22:07:53.907Z,12.80
2023-08-12T22:10:21.060Z,9.45
2023-08-12T22:12:48.209Z,9.38
2023-08-12T22:15:15.354Z,12.00
2023-08-12T22:17:45.172Z,9.45
2023-08-12T22:20:14.804Z,11.48
2023-08-12T22:22:42.359Z,10.57
2023-08-12T22:25:09.774Z,11.80
2023-08-12T22:27:36.897Z,12.27
2023-08-12T22:30:06.180Z,11.82
2023-08-12T22:32:33.451Z,9.38
2023-08-12T22:35:00.643Z,10.45
2023-08-12T22:37:27.872Z,11.38
2023-08-12T22:39:55.031Z,13.18
2023-08-12T22:42:22.185Z,11.32
2023-08-12T22:44:49.368Z,12.02
2023-08-12T22:47:17.265Z,10.45
2023-08-12T22:49:44.557Z,11.25
2023-08-12T22:52:12.123Z,12.80
2023-08-12T22:54:39.514Z,13.52
2023-08-12T22:57:07.641Z,17.30
2023-08-12T22:59:34.910Z,12.23
2023-08-12T23:02:02.233Z,11.98
2023-08-12T23:04:29.473Z,12.32
2023-08-12T23:06:56.714Z,12.68
2023-08-12T23:09:23.908Z,12.55
2023-08-12T23:11:51.110Z,11.20
2023-08-12T23:14:18.356Z,10.40
2023-08-12T23:16:45.517Z,11.15
2023-08-12T23:19:12.766Z,12.43
2023-08-12T23:21:39.938Z,11.40
2023-08-12T23:24:08.065Z,13.15
2023-08-12T23:26:36.390Z,9.13
2023-08-12T23:29:03.584Z,10.60
2023-08-12T23:31:30.764Z,13.23
2023-08-12T23:33:58.000Z,15.02
2023-08-12T23:36:25.112Z,11.18
2023-08-12T23:38:52.296Z,12.65
2023-08-12T23:41:19.542Z,10.15
2023-08-12T23:43:46.687Z,12.57
2023-08-12T23:46:13.998Z,12.80
2023-08-12T23:48:41.186Z,11.73
2023-08-12T23:51:08.324Z,11.68
2023-08-12T23:53:35.520Z,12.10
2023-08-12T23:56:02.870Z,11.68
2023-08-12T23:58:30.079Z,12.25
